FDF weather

Public forecast

Using degrees Celsius for public forecast. Weather courtesy of forecast.io.

Current aviation weather report (METAR) for Martinique Aimé Césaire International Airport

Retrieved 2020/08/12 18:00 UTC (11 minutes ago):

TFFF 121800Z AUTO 11017KT 9999 SCT028 OVC048 31/25 Q1012 TEMPO 08015G25KT 4000 SHRA SCT010CB SCT018TCU

Aviation forecast (TAF) for Martinique Aimé Césaire International Airport

Retrieved 2020/08/12 18:31 UTC (0 seconds ago):

TAF TFFF 121600Z 1218/1318 10012KT 9999 SCT025 TEMPO 1218/1222 4000 SHRA SCT010CB SCT018TCU PROB30 TEMPO 1218/1224 08015G25KT TEMPO 1306/1318 4000 SHRA SCT018TCU